GSVT2: Red River, Gainesville, TX

                                SHEF ID:       GSVT2     Red River near Gainesville, TX
STATION TYPE:
Regulating: Stage = 25.00, Flow = 54054

PRECIP STAGE RIV-FLOW BAT-LOAD
in ft cfs volt
Ccp-Rev Ccp-Rev Ccp-Rev Ccp-Rev
(America/Chicago)
04/27 00:00 0.00 6.14 1079 12.49
04/27 01:00 0.00 6.12 1069 12.41
04/27 02:00 0.00 6.09 1054 12.41
04/27 03:00 0.00 6.07 1042 12.41
04/27 04:00 0.00 6.06 1036 12.41
04/27 05:00 0.00 6.03 1016 12.41
04/27 06:00 0.00 6.04 1023 12.41
04/27 07:00 0.00 6.04 1023 12.41
04/27 08:00 0.00 6.04 1023 12.41
04/27 09:00 0.00 6.04 1023 13.05
04/27 10:00 0.00 6.03 1016 13.29
04/27 11:00 0.00 6.03 1016 13.29
04/27 12:00 0.00 6.00 996 13.29
04/27 13:00 0.00 5.99 990 13.29
04/27 14:00 0.00 5.97 976 13.29
04/27 15:00 0.00 5.95 963 13.29
04/27 16:00 0.00 5.93 950 13.29
04/27 17:00 0.00 5.93 950 13.21
04/27 18:00 0.00 5.92 943 13.21
04/27 19:00 0.00 5.91 937 13.21
04/27 20:00 0.00 5.90 931 13.13
04/27 21:00 0.00 5.89 924 12.73
04/27 22:00 0.00 5.89 924 12.57
04/27 23:00 0.00 5.88 918 12.49
Data processed at Tue 28Apr2026 04:32 GMT

NOTICE: If you are parsing this page

Please convert to using our Data API. Starting early 2026 we will be migrating to: https://water.usace.army.mil with modern pages rendered in JavaScript. When this migration completes you will no longer be able to scrape this page! CWMSDataAPI (CDA)

Timeseries IDs (TSIDs)

TSIDs used from left to right in the data table
GAIN.Precip-Inc.Total.1Hour.1Hour.Ccp-Rev
GAIN.Stage.Inst.1Hour.0.Ccp-Rev
GAIN.Flow.Inst.1Hour.0.Ccp-Rev
GAIN.Volt-Battery Load.Inst.1Hour.0.Ccp-Rev

                            

All information presented herein is the property of the government of the United States of America and may be revised or deleted at any time without prior notice. Dissemination of this information without the expressed written consent of the Public Affairs Office, Tulsa District U.S. Army Corps of Engineers is strictly prohibited. These data are gathered electronically and, as presented, have NOT undergone any form of quality control. These data are NOT guaranteed to be valid or correct.